Time;durP1;ratioP1;P1;durP2;ratioP2;P2;SDS_P1;SDS_P2;PMS_P1;PMS_P2;Temp;Humidity;BMP_temperature;BMP_pressure;BME280_temperature;BME280_humidity;BME280_pressure;Samples;Min_cycle;Max_cycle;Signal;HPM_P1;HPM_P2
2022/07/05 00:00:16;;;;;;;8.88;5.63;;;;;;;;;;5258710;28;20276;-84
2022/07/05 00:02:47;;;;;;;8.77;5.43;;;;;;;;;;5275381;28;20033;-84
2022/07/05 00:05:18;;;;;;;10.03;5.27;;;;;;;;;;5275892;28;20382;-84
2022/07/05 00:07:49;;;;;;;6.25;5.65;;;;;;;;;;5276465;28;20296;-84
2022/07/05 00:10:21;;;;;;;7.33;5.40;;;;;;;;;;5276399;28;20028;-84
2022/07/05 00:12:52;;;;;;;7.07;5.72;;;;;;;;;;5276938;28;20040;-84
2022/07/05 00:15:23;;;;;;;7.78;6.97;;;;;;;;;;5275100;28;20172;-83
2022/07/05 00:17:54;;;;;;;7.00;6.30;;;;;;;;;;5278749;28;20025;-83
2022/07/05 00:20:26;;;;;;;6.87;5.53;;;;;;;;;;5258492;28;20052;-83
2022/07/05 00:22:57;;;;;;;6.45;5.88;;;;;;;;;;5277421;28;20477;-83
2022/07/05 00:25:29;;;;;;;8.05;5.53;;;;;;;;;;5275534;28;20409;-83
2022/07/05 00:28:00;;;;;;;6.90;6.20;;;;;;;;;;5257768;28;20029;-83
2022/07/05 00:30:31;;;;;;;6.88;6.18;;;;;;;;;;5247105;28;20280;-83
2022/07/05 00:33:02;;;;;;;8.50;6.77;;;;;;;;;;5275684;28;20063;-83
2022/07/05 00:35:33;;;;;;;7.10;6.17;;;;;;;;;;5275369;28;20288;-82
2022/07/05 00:38:05;;;;;;;9.53;6.60;;;;;;;;;;5277085;28;20275;-82
2022/07/05 00:40:36;;;;;;;8.68;6.57;;;;;;;;;;5275127;28;20692;-82
2022/07/05 00:43:07;;;;;;;7.30;6.60;;;;;;;;;;5259488;28;20040;-83
2022/07/05 00:45:38;;;;;;;7.40;6.50;;;;;;;;;;5280994;28;20136;-81
2022/07/05 00:48:10;;;;;;;8.00;6.37;;;;;;;;;;5279636;28;20473;-82
2022/07/05 00:50:41;;;;;;;7.30;6.63;;;;;;;;;;5284097;28;20330;-83
2022/07/05 00:53:13;;;;;;;9.80;7.75;;;;;;;;;;5282751;28;20267;-82
2022/07/05 00:55:44;;;;;;;10.70;8.05;;;;;;;;;;5303955;28;20037;-83
2022/07/05 00:58:15;;;;;;;9.10;8.05;;;;;;;;;;5295549;28;20028;-82
2022/07/05 01:00:46;;;;;;;7.00;6.10;;;;;;;;;;5302921;28;20037;-82
2022/07/05 01:03:18;;;;;;;8.33;6.90;;;;;;;;;;5289226;28;20275;-83
2022/07/05 01:05:49;;;;;;;8.23;7.43;;;;;;;;;;5280914;28;20359;-83
2022/07/05 01:08:22;;;;;;;11.30;8.13;;;;;;;;;;5279005;28;20305;-84
2022/07/05 01:10:54;;;;;;;9.57;8.68;;;;;;;;;;5258768;28;20108;-84
2022/07/05 01:13:25;;;;;;;8.32;7.47;;;;;;;;;;5277590;28;20083;-84
2022/07/05 01:15:57;;;;;;;8.05;7.25;;;;;;;;;;5260053;28;20029;-84
2022/07/05 01:18:29;;;;;;;9.90;8.90;;;;;;;;;;5276977;28;20033;-83
2022/07/05 01:21:00;;;;;;;10.25;9.15;;;;;;;;;;5261052;28;20053;-84
2022/07/05 01:23:32;;;;;;;14.93;9.75;;;;;;;;;;5278173;28;20032;-83
2022/07/05 01:26:06;;;;;;;9.68;8.82;;;;;;;;;;5260960;28;20059;-84
2022/07/05 01:28:37;;;;;;;8.98;8.05;;;;;;;;;;5277076;28;20032;-84
2022/07/05 01:31:08;;;;;;;9.17;8.37;;;;;;;;;;5278501;28;20036;-83
2022/07/05 01:33:40;;;;;;;10.15;8.57;;;;;;;;;;5273845;28;20033;-83
2022/07/05 01:36:11;;;;;;;10.57;8.02;;;;;;;;;;5277966;28;20404;-83
2022/07/05 01:38:43;;;;;;;8.05;7.25;;;;;;;;;;5272368;28;20033;-83
2022/07/05 01:41:14;;;;;;;8.60;7.80;;;;;;;;;;5275093;28;20036;-83
2022/07/05 01:43:45;;;;;;;9.77;8.70;;;;;;;;;;5265855;28;20041;-83
2022/07/05 01:46:18;;;;;;;10.27;8.37;;;;;;;;;;5274404;28;20543;-83
2022/07/05 01:48:50;;;;;;;9.27;8.38;;;;;;;;;;5255226;28;20814;-83
2022/07/05 01:51:26;;;;;;;9.52;8.52;;;;;;;;;;5274049;28;20021;-82
2022/07/05 01:53:57;;;;;;;11.53;10.20;;;;;;;;;;5256340;28;20049;-82
2022/07/05 01:56:29;;;;;;;10.77;9.47;;;;;;;;;;5266474;28;20032;-83
2022/07/05 01:59:00;;;;;;;11.23;9.80;;;;;;;;;;5270076;28;20286;-84
2022/07/05 02:01:33;;;;;;;11.52;8.60;;;;;;;;;;5259147;28;20041;-84
2022/07/05 02:04:05;;;;;;;9.30;8.50;;;;;;;;;;5274227;28;20033;-84
2022/07/05 02:06:37;;;;;;;9.60;8.73;;;;;;;;;;5276130;28;20477;-84
2022/07/05 02:09:08;;;;;;;8.45;7.32;;;;;;;;;;5274385;28;20024;-84
2022/07/05 02:11:46;;;;;;;10.77;9.68;;;;;;;;;;5268332;28;20040;-84
2022/07/05 02:14:19;;;;;;;12.20;11.07;;;;;;;;;;5268888;28;20485;-84
2022/07/05 02:16:50;;;;;;;13.40;11.48;;;;;;;;;;5272752;28;20077;-84
2022/07/05 02:19:22;;;;;;;13.00;11.70;;;;;;;;;;5273829;28;20071;-84
2022/07/05 02:21:53;;;;;;;13.02;9.65;;;;;;;;;;5259970;28;20025;-84
2022/07/05 02:24:24;;;;;;;10.25;9.25;;;;;;;;;;5260316;28;20037;-84
2022/07/05 02:26:55;;;;;;;12.70;11.38;;;;;;;;;;5260147;28;20020;-84
2022/07/05 02:29:27;;;;;;;13.30;10.50;;;;;;;;;;5276187;28;20027;-84
2022/07/05 02:31:58;;;;;;;10.38;9.48;;;;;;;;;;5252620;28;20032;-81
2022/07/05 02:34:29;;;;;;;13.15;10.45;;;;;;;;;;5276237;28;20082;-84
2022/07/05 02:37:04;;;;;;;11.05;10.02;;;;;;;;;;5248937;28;20364;-86
2022/07/05 02:39:35;;;;;;;12.27;10.05;;;;;;;;;;5258482;28;20032;-86
2022/07/05 02:42:07;;;;;;;11.82;10.52;;;;;;;;;;5259168;28;20028;-84
2022/07/05 02:44:39;;;;;;;11.52;10.30;;;;;;;;;;5263175;28;20037;-85
2022/07/05 02:47:11;;;;;;;11.32;10.25;;;;;;;;;;5259298;28;20369;-86
2022/07/05 02:49:43;;;;;;;10.60;9.60;;;;;;;;;;5254656;28;20505;-86
2022/07/05 02:52:14;;;;;;;11.55;10.23;;;;;;;;;;5273256;28;20013;-85
2022/07/05 02:54:46;;;;;;;10.40;9.30;;;;;;;;;;5284424;28;20045;-85
2022/07/05 02:57:18;;;;;;;11.68;9.23;;;;;;;;;;5282731;28;20027;-85
2022/07/05 02:59:50;;;;;;;11.98;10.25;;;;;;;;;;5282753;28;20025;-86
2022/07/05 03:02:22;;;;;;;9.70;8.75;;;;;;;;;;5297878;28;20048;-85
2022/07/05 03:04:54;;;;;;;9.57;8.30;;;;;;;;;;5276621;28;20111;-85
2022/07/05 03:07:26;;;;;;;12.68;9.88;;;;;;;;;;5264673;28;20044;-86
2022/07/05 03:09:57;;;;;;;9.18;8.40;;;;;;;;;;5265823;28;20047;-86
2022/07/05 03:12:29;;;;;;;9.73;8.73;;;;;;;;;;5265779;28;20025;-85
2022/07/05 03:15:00;;;;;;;9.55;7.63;;;;;;;;;;5265077;28;20360;-85
2022/07/05 03:17:32;;;;;;;12.90;8.32;;;;;;;;;;5260090;28;20036;-85
2022/07/05 03:20:04;;;;;;;9.05;8.15;;;;;;;;;;5259891;28;20060;-85
2022/07/05 03:22:36;;;;;;;16.80;10.05;;;;;;;;;;5258547;28;20159;-85
2022/07/05 03:25:08;;;;;;;10.40;9.05;;;;;;;;;;5255359;28;20040;-85
2022/07/05 03:27:39;;;;;;;12.93;10.98;;;;;;;;;;5255451;28;20087;-85
2022/07/05 03:30:13;;;;;;;11.18;9.25;;;;;;;;;;5275509;28;20025;-86
2022/07/05 03:32:44;;;;;;;9.70;8.70;;;;;;;;;;5256755;28;20063;-85
2022/07/05 03:35:16;;;;;;;11.40;8.77;;;;;;;;;;5260471;28;20064;-85
2022/07/05 03:37:48;;;;;;;16.20;10.50;;;;;;;;;;5258512;28;20029;-85
2022/07/05 03:40:20;;;;;;;10.52;9.43;;;;;;;;;;5259994;28;20037;-85
2022/07/05 03:42:51;;;;;;;11.48;9.32;;;;;;;;;;5262642;28;20044;-85
2022/07/05 03:45:23;;;;;;;11.27;10.07;;;;;;;;;;5268739;28;20124;-84
2022/07/05 03:48:01;;;;;;;11.80;10.50;;;;;;;;;;5279746;28;20029;-84
2022/07/05 03:50:33;;;;;;;12.57;11.27;;;;;;;;;;5259556;28;20134;-85
2022/07/05 03:53:05;;;;;;;15.05;12.52;;;;;;;;;;5259509;28;20148;-84
2022/07/05 03:55:37;;;;;;;12.43;11.13;;;;;;;;;;5254727;28;20079;-84
2022/07/05 03:58:09;;;;;;;12.18;10.93;;;;;;;;;;5257092;28;20120;-84
2022/07/05 04:00:41;;;;;;;11.95;10.77;;;;;;;;;;5255397;28;20526;-84
2022/07/05 04:03:15;;;;;;;13.10;11.45;;;;;;;;;;5272991;28;20047;-84
2022/07/05 04:05:47;;;;;;;13.25;11.88;;;;;;;;;;5256186;28;20199;-84
2022/07/05 04:08:19;;;;;;;13.20;11.85;;;;;;;;;;5273556;28;20048;-84
2022/07/05 04:10:51;;;;;;;16.15;13.75;;;;;;;;;;5255714;28;20112;-84
2022/07/05 04:13:22;;;;;;;13.40;11.98;;;;;;;;;;5273181;28;20037;-84
2022/07/05 04:15:55;;;;;;;13.63;12.25;;;;;;;;;;5272389;28;20020;-83
2022/07/05 04:18:26;;;;;;;14.18;12.73;;;;;;;;;;5254150;28;20049;-83
2022/07/05 04:20:58;;;;;;;11.80;10.63;;;;;;;;;;5257159;28;20032;-86
2022/07/05 04:23:33;;;;;;;13.85;12.48;;;;;;;;;;5256346;28;20128;-85
2022/07/05 04:26:08;;;;;;;14.32;12.90;;;;;;;;;;5252952;28;20025;-85
2022/07/05 04:28:40;;;;;;;14.13;12.70;;;;;;;;;;5255278;28;20029;-84
2022/07/05 04:31:14;;;;;;;15.43;13.75;;;;;;;;;;5258972;28;20028;-84
2022/07/05 04:33:45;;;;;;;12.93;11.63;;;;;;;;;;5256752;28;20033;-84
2022/07/05 04:36:16;;;;;;;15.20;13.77;;;;;;;;;;5255134;28;20087;-81
2022/07/05 04:38:48;;;;;;;14.07;12.68;;;;;;;;;;5273275;28;20041;-81
2022/07/05 04:41:19;;;;;;;17.17;12.40;;;;;;;;;;5258040;28;20028;-81
2022/07/05 04:43:50;;;;;;;14.05;12.75;;;;;;;;;;5254637;28;20559;-81
2022/07/05 04:46:21;;;;;;;15.75;13.15;;;;;;;;;;5259048;28;20025;-81
2022/07/05 04:48:52;;;;;;;12.98;11.70;;;;;;;;;;5255964;28;20083;-81
2022/07/05 04:51:24;;;;;;;14.10;11.80;;;;;;;;;;5274864;28;20080;-80
2022/07/05 04:53:55;;;;;;;15.30;13.40;;;;;;;;;;5274257;28;20064;-80
2022/07/05 04:56:27;;;;;;;11.32;10.18;;;;;;;;;;5264254;28;20385;-80
2022/07/05 04:58:58;;;;;;;13.85;11.15;;;;;;;;;;5260702;28;20109;-80
2022/07/05 05:01:29;;;;;;;13.97;11.03;;;;;;;;;;5272752;28;20028;-80
2022/07/05 05:04:01;;;;;;;14.67;10.83;;;;;;;;;;5264212;28;20323;-81
2022/07/05 05:06:32;;;;;;;11.80;10.60;;;;;;;;;;5258624;28;20314;-80
2022/07/05 05:09:03;;;;;;;11.20;9.83;;;;;;;;;;5276803;28;20045;-81
2022/07/05 05:11:35;;;;;;;14.02;10.88;;;;;;;;;;5276067;28;20064;-82
2022/07/05 05:14:06;;;;;;;11.47;10.17;;;;;;;;;;5251812;28;20044;-81
2022/07/05 05:16:37;;;;;;;11.83;10.63;;;;;;;;;;5268300;28;20025;-80
2022/07/05 05:19:08;;;;;;;12.87;9.63;;;;;;;;;;5269452;28;20271;-81
2022/07/05 05:21:39;;;;;;;10.80;9.80;;;;;;;;;;5269506;28;20644;-81
2022/07/05 05:24:10;;;;;;;11.98;9.82;;;;;;;;;;5271929;28;20523;-81
2022/07/05 05:26:42;;;;;;;12.47;10.23;;;;;;;;;;5265409;28;20025;-81
2022/07/05 05:29:13;;;;;;;11.98;9.18;;;;;;;;;;5263622;28;20030;-81
2022/07/05 05:31:44;;;;;;;13.27;8.80;;;;;;;;;;5275873;28;20085;-81
2022/07/05 05:34:15;;;;;;;11.33;10.13;;;;;;;;;;5287651;28;20067;-81
2022/07/05 05:36:46;;;;;;;12.80;10.37;;;;;;;;;;5282732;28;20707;-81
2022/07/05 05:39:18;;;;;;;11.15;9.70;;;;;;;;;;5263104;28;20040;-81
2022/07/05 05:41:49;;;;;;;12.00;10.80;;;;;;;;;;5279119;28;20822;-81
2022/07/05 05:44:20;;;;;;;10.70;9.60;;;;;;;;;;5268456;28;20504;-80
2022/07/05 05:46:51;;;;;;;14.13;11.03;;;;;;;;;;5294892;28;20282;-80
2022/07/05 05:49:22;;;;;;;12.25;11.15;;;;;;;;;;5303520;28;20294;-80
2022/07/05 05:51:54;;;;;;;14.63;10.23;;;;;;;;;;5266768;28;20021;-80
2022/07/05 05:54:26;;;;;;;11.23;9.45;;;;;;;;;;5284759;28;20049;-80
2022/07/05 05:56:57;;;;;;;10.98;9.60;;;;;;;;;;5284767;28;20029;-80
2022/07/05 05:59:28;;;;;;;11.90;9.83;;;;;;;;;;5266964;28;20048;-81
2022/07/05 06:02:02;;;;;;;19.27;10.23;;;;;;;;;;5284426;28;20319;-81
2022/07/05 06:04:33;;;;;;;11.90;8.90;;;;;;;;;;5286048;28;20033;-80
2022/07/05 06:07:05;;;;;;;12.63;10.18;;;;;;;;;;5289677;28;20085;-80
2022/07/05 06:09:36;;;;;;;12.07;9.67;;;;;;;;;;5291026;28;20116;-80
2022/07/05 06:12:08;;;;;;;12.93;9.23;;;;;;;;;;5292806;28;20029;-80
2022/07/05 06:14:39;;;;;;;12.30;9.77;;;;;;;;;;5286274;28;20028;-81
2022/07/05 06:17:10;;;;;;;14.10;9.60;;;;;;;;;;5285225;28;20484;-81
2022/07/05 06:19:41;;;;;;;10.73;9.17;;;;;;;;;;5268099;28;20499;-79
2022/07/05 06:22:12;;;;;;;14.30;9.53;;;;;;;;;;5266583;28;20278;-79
2022/07/05 06:24:43;;;;;;;13.80;8.77;;;;;;;;;;5280685;28;20284;-79
2022/07/05 06:27:15;;;;;;;9.03;8.13;;;;;;;;;;5289656;28;20031;-79
2022/07/05 06:29:46;;;;;;;12.43;8.57;;;;;;;;;;5288020;28;20271;-79
2022/07/05 06:32:17;;;;;;;8.77;7.87;;;;;;;;;;5306866;28;20031;-79
2022/07/05 06:34:48;;;;;;;11.60;8.60;;;;;;;;;;5312420;28;20025;-78
2022/07/05 06:37:19;;;;;;;8.73;7.78;;;;;;;;;;5309554;28;20696;-79
2022/07/05 06:39:51;;;;;;;8.60;7.57;;;;;;;;;;5288924;28;20121;-79
2022/07/05 06:42:22;;;;;;;9.27;8.20;;;;;;;;;;5273835;28;20488;-79
2022/07/05 06:44:53;;;;;;;11.17;7.80;;;;;;;;;;5285773;28;20280;-79
2022/07/05 06:47:24;;;;;;;8.73;7.90;;;;;;;;;;5283091;28;20263;-80
2022/07/05 06:49:57;;;;;;;8.83;7.60;;;;;;;;;;5283708;28;20279;-80
2022/07/05 06:52:29;;;;;;;9.38;7.20;;;;;;;;;;5265559;28;20282;-80
2022/07/05 06:55:00;;;;;;;9.60;7.93;;;;;;;;;;5264265;28;20452;-80
2022/07/05 06:57:32;;;;;;;7.75;7.05;;;;;;;;;;5284185;28;20028;-80
2022/07/05 07:00:03;;;;;;;8.57;7.03;;;;;;;;;;5282892;28;20055;-80
2022/07/05 07:02:34;;;;;;;9.75;7.50;;;;;;;;;;5283630;28;21041;-80
2022/07/05 07:05:06;;;;;;;10.83;7.70;;;;;;;;;;5284154;28;20025;-80
2022/07/05 07:10:28;;;;;;;11.52;6.38;;;;;;;;;;5304460;28;20032;-80
2022/07/05 07:12:59;;;;;;;7.43;5.78;;;;;;;;;;5304888;28;20027;-80
2022/07/05 07:15:31;;;;;;;7.53;5.10;;;;;;;;;;5304935;28;20017;-79
2022/07/05 07:18:02;;;;;;;7.78;4.65;;;;;;;;;;5304420;28;20021;-79
2022/07/05 07:20:34;;;;;;;6.95;4.97;;;;;;;;;;5305312;28;20450;-81
2022/07/05 07:23:05;;;;;;;8.13;5.30;;;;;;;;;;5304312;28;20024;-81
2022/07/05 07:25:36;;;;;;;6.77;5.17;;;;;;;;;;5265082;28;20369;-80
2022/07/05 07:28:07;;;;;;;9.83;5.37;;;;;;;;;;5283662;28;20103;-80
2022/07/05 07:30:39;;;;;;;7.53;5.70;;;;;;;;;;5264138;28;20033;-80
2022/07/05 07:33:10;;;;;;;11.97;5.97;;;;;;;;;;5265280;28;20021;-81
2022/07/05 07:35:41;;;;;;;8.80;5.83;;;;;;;;;;5283388;28;20264;-81
2022/07/05 07:38:12;;;;;;;8.15;5.72;;;;;;;;;;5283153;28;20061;-81
2022/07/05 07:40:43;;;;;;;14.33;5.27;;;;;;;;;;5264447;28;20063;-79
2022/07/05 07:43:15;;;;;;;9.60;5.35;;;;;;;;;;5270251;28;20763;-80
2022/07/05 07:45:46;;;;;;;18.10;6.60;;;;;;;;;;5292393;28;20448;-80
2022/07/05 07:48:17;;;;;;;12.83;5.50;;;;;;;;;;5262029;28;20356;-79
2022/07/05 07:50:48;;;;;;;12.20;5.90;;;;;;;;;;5263677;28;20018;-80
2022/07/05 07:53:19;;;;;;;9.70;5.27;;;;;;;;;;5304140;28;20071;-79
2022/07/05 07:55:51;;;;;;;14.03;4.83;;;;;;;;;;5285697;28;20055;-79
2022/07/05 07:58:22;;;;;;;10.57;4.95;;;;;;;;;;5304201;28;20615;-80
2022/07/05 08:00:53;;;;;;;13.67;4.90;;;;;;;;;;5303775;28;20364;-81
2022/07/05 08:03:25;;;;;;;9.37;5.13;;;;;;;;;;5304258;28;20302;-81
2022/07/05 08:05:56;;;;;;;11.17;4.87;;;;;;;;;;5298942;28;20367;-79
2022/07/05 08:08:27;;;;;;;10.67;4.97;;;;;;;;;;5267557;28;20936;-79
2022/07/05 08:10:59;;;;;;;7.70;5.25;;;;;;;;;;5303126;28;20095;-80
2022/07/05 08:13:30;;;;;;;12.82;6.05;;;;;;;;;;5303967;28;20023;-80
2022/07/05 08:16:02;;;;;;;19.67;6.93;;;;;;;;;;5285267;28;20871;-81
2022/07/05 08:21:32;;;;;;;10.27;6.32;;;;;;;;;;5301868;28;20032;-80
2022/07/05 08:24:05;;;;;;;12.95;7.35;;;;;;;;;;5300401;28;20568;-80
2022/07/05 08:26:36;;;;;;;10.95;7.43;;;;;;;;;;5260150;28;20215;-79
2022/07/05 08:29:09;;;;;;;11.40;7.47;;;;;;;;;;5273520;28;20249;-80
2022/07/05 08:31:44;;;;;;;13.00;7.00;;;;;;;;;;5277128;28;20024;-80
2022/07/05 08:34:17;;;;;;;9.82;6.20;;;;;;;;;;5285255;28;20028;-81
2022/07/05 08:36:49;;;;;;;12.60;7.30;;;;;;;;;;5297223;28;20499;-80
2022/07/05 08:39:20;;;;;;;11.20;7.00;;;;;;;;;;5281348;28;20060;-80
2022/07/05 08:41:52;;;;;;;9.38;6.88;;;;;;;;;;5265080;28;20374;-80
2022/07/05 08:44:23;;;;;;;15.25;7.03;;;;;;;;;;5283539;28;20029;-81
2022/07/05 08:46:55;;;;;;;11.63;6.00;;;;;;;;;;5283422;28;20025;-81
2022/07/05 08:49:27;;;;;;;8.57;6.22;;;;;;;;;;5283328;28;20032;-80
2022/07/05 08:51:59;;;;;;;8.95;5.20;;;;;;;;;;5282218;28;20369;-81
2022/07/05 08:54:31;;;;;;;13.55;6.20;;;;;;;;;;5264246;28;20135;-81
2022/07/05 08:57:02;;;;;;;11.88;5.55;;;;;;;;;;5283027;28;20104;-81
2022/07/05 08:59:34;;;;;;;10.10;4.97;;;;;;;;;;5283091;28;20426;-80
2022/07/05 09:02:07;;;;;;;7.80;4.77;;;;;;;;;;5282771;28;20025;-81
2022/07/05 09:04:41;;;;;;;8.13;4.35;;;;;;;;;;5270634;28;20294;-80
2022/07/05 09:07:14;;;;;;;10.35;4.05;;;;;;;;;;5307443;28;20025;-81
2022/07/05 09:09:46;;;;;;;7.30;4.45;;;;;;;;;;5308248;28;20028;-80
2022/07/05 09:12:18;;;;;;;7.63;4.35;;;;;;;;;;5308613;28;20472;-80
2022/07/05 09:14:50;;;;;;;9.87;4.23;;;;;;;;;;5309313;28;20027;-81
2022/07/05 09:17:21;;;;;;;8.60;3.90;;;;;;;;;;5317336;28;20348;-80
2022/07/05 09:20:05;;;;;;;6.03;3.17;;;;;;;;;;5316213;28;20092;-80
2022/07/05 09:22:52;;;;;;;7.85;3.20;;;;;;;;;;5297650;28;20706;-81
2022/07/05 09:25:27;;;;;;;10.13;3.33;;;;;;;;;;5295199;28;20033;-81
2022/07/05 09:28:00;;;;;;;6.75;2.90;;;;;;;;;;5287073;28;20939;-79
2022/07/05 09:30:32;;;;;;;6.82;3.75;;;;;;;;;;5286147;28;20033;-80
2022/07/05 09:33:04;;;;;;;5.38;2.70;;;;;;;;;;5270539;28;20480;-80
2022/07/05 09:35:41;;;;;;;5.80;3.40;;;;;;;;;;5306466;28;20093;-81
2022/07/05 09:38:17;;;;;;;12.38;3.58;;;;;;;;;;5306589;28;20078;-80
2022/07/05 09:40:58;;;;;;;7.10;2.70;;;;;;;;;;5306067;28;20032;-80
2022/07/05 09:43:29;;;;;;;6.80;2.85;;;;;;;;;;5306473;28;20132;-80
2022/07/05 09:46:00;;;;;;;7.20;3.97;;;;;;;;;;5288906;28;20377;-81
2022/07/05 09:48:33;;;;;;;6.30;2.47;;;;;;;;;;5278696;28;20655;-81
2022/07/05 09:51:09;;;;;;;5.10;2.28;;;;;;;;;;5283331;28;20037;-81
2022/07/05 09:53:47;;;;;;;7.57;2.72;;;;;;;;;;5266231;28;20052;-81
2022/07/05 09:56:18;;;;;;;6.93;2.67;;;;;;;;;;5284950;28;20067;-80
2022/07/05 09:58:50;;;;;;;4.40;2.05;;;;;;;;;;5300532;28;20484;-81
2022/07/05 10:01:28;;;;;;;2.27;1.70;;;;;;;;;;5305829;28;20028;-80
2022/07/05 10:04:03;;;;;;;5.45;1.83;;;;;;;;;;5305835;28;20111;-81
2022/07/05 10:06:35;;;;;;;3.55;1.83;;;;;;;;;;5287633;28;20112;-81
2022/07/05 10:09:06;;;;;;;3.83;2.03;;;;;;;;;;5287164;28;20107;-81
2022/07/05 10:11:39;;;;;;;8.27;2.88;;;;;;;;;;5304548;28;20020;-81
2022/07/05 10:14:15;;;;;;;6.85;2.40;;;;;;;;;;5304923;28;20032;-81
2022/07/05 10:16:59;;;;;;;4.35;2.22;;;;;;;;;;5304381;28;20394;-81
2022/07/05 10:19:37;;;;;;;8.35;2.47;;;;;;;;;;5306076;28;20380;-81
2022/07/05 10:22:09;;;;;;;8.55;3.08;;;;;;;;;;5306370;28;20122;-81
2022/07/05 10:24:40;;;;;;;5.82;3.35;;;;;;;;;;5297308;28;20026;-81
2022/07/05 10:27:12;;;;;;;5.65;2.70;;;;;;;;;;5286268;28;20199;-81
2022/07/05 10:29:43;;;;;;;4.90;2.60;;;;;;;;;;5305245;28;20476;-82
2022/07/05 10:32:15;;;;;;;5.20;2.60;;;;;;;;;;5305095;28;20036;-81
2022/07/05 10:34:47;;;;;;;6.07;2.28;;;;;;;;;;5305414;28;20384;-81
2022/07/05 10:37:18;;;;;;;4.78;2.00;;;;;;;;;;5307204;28;20024;-81
2022/07/05 10:39:49;;;;;;;3.92;1.98;;;;;;;;;;5295041;28;20033;-81
2022/07/05 10:42:21;;;;;;;6.67;2.07;;;;;;;;;;5286933;28;20068;-81
2022/07/05 10:44:53;;;;;;;2.95;1.70;;;;;;;;;;5286587;28;20279;-81
2022/07/05 10:47:25;;;;;;;5.37;1.70;;;;;;;;;;5284778;28;20021;-81
2022/07/05 10:50:04;;;;;;;5.18;1.90;;;;;;;;;;5284448;28;20057;-81
2022/07/05 10:52:35;;;;;;;2.97;1.80;;;;;;;;;;5265757;28;20021;-81
2022/07/05 10:55:22;;;;;;;6.20;1.90;;;;;;;;;;5262606;28;20036;-80
2022/07/05 10:58:12;;;;;;;2.85;1.30;;;;;;;;;;5263528;28;20025;-82
2022/07/05 11:00:45;;;;;;;5.40;1.77;;;;;;;;;;5277061;28;20448;-80
2022/07/05 11:03:33;;;;;;;4.40;1.73;;;;;;;;;;5271463;28;20453;-79
2022/07/05 11:06:05;;;;;;;4.38;1.52;;;;;;;;;;5291287;28;20028;-80
2022/07/05 11:08:55;;;;;;;8.18;2.17;;;;;;;;;;5286693;28;20036;-81
2022/07/05 11:11:33;;;;;;;3.63;1.52;;;;;;;;;;5303633;28;20040;-80
2022/07/05 11:14:25;;;;;;;5.65;1.42;;;;;;;;;;5298329;28;20029;-80
2022/07/05 11:17:11;;;;;;;3.63;1.20;;;;;;;;;;5299774;28;20166;-80
2022/07/05 11:19:58;;;;;;;3.53;1.10;;;;;;;;;;5280478;28;20075;-80
2022/07/05 11:22:30;;;;;;;4.13;1.42;;;;;;;;;;5283661;28;20029;-80
2022/07/05 11:25:02;;;;;;;6.10;1.58;;;;;;;;;;5263428;28;20025;-80
2022/07/05 11:27:33;;;;;;;4.07;1.20;;;;;;;;;;5299014;28;20060;-80
2022/07/05 11:30:23;;;;;;;6.27;1.60;;;;;;;;;;5264890;28;20029;-81
2022/07/05 11:32:58;;;;;;;5.47;1.92;;;;;;;;;;5282526;28;20342;-81
2022/07/05 11:35:33;;;;;;;4.15;1.50;;;;;;;;;;5282984;28;20531;-81
2022/07/05 11:38:06;;;;;;;4.68;1.60;;;;;;;;;;5264473;28;20448;-81
2022/07/05 11:40:38;;;;;;;4.35;1.95;;;;;;;;;;5285674;28;20063;-79
2022/07/05 11:43:10;;;;;;;5.13;1.60;;;;;;;;;;5285832;28;20119;-81
2022/07/05 11:45:41;;;;;;;2.58;1.35;;;;;;;;;;5293619;28;20100;-79
2022/07/05 11:48:16;;;;;;;2.27;1.37;;;;;;;;;;5244170;28;20568;-79
2022/07/05 11:50:47;;;;;;;3.50;1.63;;;;;;;;;;5262042;28;20017;-79
2022/07/05 11:53:31;;;;;;;4.13;1.87;;;;;;;;;;5261849;28;20057;-81
2022/07/05 11:56:02;;;;;;;5.82;2.13;;;;;;;;;;5270701;28;20029;-80
2022/07/05 11:58:33;;;;;;;4.45;1.70;;;;;;;;;;5265419;28;20032;-80
2022/07/05 12:01:06;;;;;;;5.75;1.70;;;;;;;;;;5283099;28;20406;-80
2022/07/05 12:03:39;;;;;;;5.00;1.70;;;;;;;;;;5282909;28;20079;-80
2022/07/05 12:06:12;;;;;;;6.93;1.92;;;;;;;;;;5275336;28;20061;-80
2022/07/05 12:08:43;;;;;;;3.78;1.90;;;;;;;;;;5269303;28;20028;-79
2022/07/05 12:14:04;;;;;;;3.67;1.27;;;;;;;;;;5290672;28;20040;-80
2022/07/05 12:16:35;;;;;;;2.57;1.30;;;;;;;;;;5305508;28;20024;-80
2022/07/05 12:19:07;;;;;;;4.30;1.30;;;;;;;;;;5305012;28;20055;-80
2022/07/05 12:21:38;;;;;;;4.55;1.40;;;;;;;;;;5287261;28;20033;-80
2022/07/05 12:24:13;;;;;;;2.93;1.23;;;;;;;;;;5283029;28;20151;-80
2022/07/05 12:26:45;;;;;;;2.30;1.00;;;;;;;;;;5263952;28;20032;-80
2022/07/05 12:29:16;;;;;;;3.73;1.17;;;;;;;;;;5283538;28;20033;-81
2022/07/05 12:32:04;;;;;;;2.53;1.02;;;;;;;;;;5283172;28;20017;-81
2022/07/05 12:34:35;;;;;;;4.68;1.02;;;;;;;;;;5264959;28;20025;-80
2022/07/05 12:37:06;;;;;;;5.60;1.00;;;;;;;;;;5302458;28;20126;-81
2022/07/05 12:39:37;;;;;;;4.03;1.20;;;;;;;;;;5284632;28;20480;-81
2022/07/05 12:42:08;;;;;;;3.37;1.07;;;;;;;;;;5304442;28;20074;-79
2022/07/05 12:44:39;;;;;;;2.43;1.07;;;;;;;;;;5280254;28;20029;-81
2022/07/05 12:47:11;;;;;;;4.40;1.10;;;;;;;;;;5264609;28;20118;-81
2022/07/05 12:49:55;;;;;;;3.77;1.10;;;;;;;;;;5262162;28;20036;-81
2022/07/05 12:52:26;;;;;;;3.17;1.05;;;;;;;;;;5287199;28;20808;-81
2022/07/05 12:58:03;;;;;;;3.25;1.30;;;;;;;;;;5282080;28;20040;-81
2022/07/05 13:00:34;;;;;;;3.23;1.00;;;;;;;;;;5273761;28;20607;-80
2022/07/05 13:03:07;;;;;;;5.17;1.03;;;;;;;;;;5275243;28;20045;-79
2022/07/05 13:05:38;;;;;;;2.35;0.70;;;;;;;;;;5258816;28;20172;-81
2022/07/05 13:08:09;;;;;;;4.63;1.17;;;;;;;;;;5261783;28;20097;-81
2022/07/05 13:10:46;;;;;;;7.15;1.35;;;;;;;;;;5243509;28;20048;-81
2022/07/05 13:13:20;;;;;;;4.43;0.60;;;;;;;;;;5262524;28;20029;-81
2022/07/05 13:15:51;;;;;;;2.15;0.52;;;;;;;;;;5264854;28;20821;-80
2022/07/05 13:18:23;;;;;;;1.45;0.55;;;;;;;;;;5303887;28;20036;-81
2022/07/05 13:20:55;;;;;;;2.05;0.60;;;;;;;;;;5303979;28;20488;-81
2022/07/05 13:23:26;;;;;;;4.25;0.80;;;;;;;;;;5303924;28;20112;-80
2022/07/05 13:25:57;;;;;;;1.50;0.57;;;;;;;;;;5283903;28;20021;-80
2022/07/05 13:28:28;;;;;;;2.10;0.70;;;;;;;;;;5282335;28;20031;-81
2022/07/05 13:31:00;;;;;;;4.57;0.80;;;;;;;;;;5282060;28;20017;-81
2022/07/05 13:33:31;;;;;;;4.40;1.20;;;;;;;;;;5264172;28;20040;-81
2022/07/05 13:36:02;;;;;;;5.45;0.90;;;;;;;;;;5264065;28;20024;-81
2022/07/05 13:38:33;;;;;;;3.40;1.05;;;;;;;;;;5281043;28;20029;-81
2022/07/05 13:41:05;;;;;;;5.30;0.70;;;;;;;;;;5286146;28;20028;-79
2022/07/05 13:43:37;;;;;;;4.27;0.70;;;;;;;;;;5301436;28;20791;-80
2022/07/05 13:46:08;;;;;;;3.15;0.90;;;;;;;;;;5276437;28;20275;-81
2022/07/05 13:48:40;;;;;;;1.77;0.70;;;;;;;;;;5283165;28;20456;-79
2022/07/05 13:51:11;;;;;;;4.82;0.90;;;;;;;;;;5267077;28;20076;-79
2022/07/05 13:53:43;;;;;;;6.07;1.00;;;;;;;;;;5267115;28;20098;-80
2022/07/05 13:56:14;;;;;;;3.67;0.80;;;;;;;;;;5266294;28;20291;-81
2022/07/05 13:58:46;;;;;;;2.50;0.80;;;;;;;;;;5286550;28;20025;-81
2022/07/05 14:01:19;;;;;;;3.17;0.80;;;;;;;;;;5286800;28;20029;-81
2022/07/05 14:03:51;;;;;;;2.05;0.80;;;;;;;;;;5287409;28;20045;-81
2022/07/05 14:06:22;;;;;;;2.07;0.80;;;;;;;;;;5286555;28;20123;-81
2022/07/05 14:08:53;;;;;;;3.55;1.27;;;;;;;;;;5287114;28;20025;-80
2022/07/05 14:11:26;;;;;;;2.10;0.70;;;;;;;;;;5286172;28;20041;-80
2022/07/05 14:13:57;;;;;;;3.10;0.70;;;;;;;;;;5285663;28;20025;-81
2022/07/05 14:16:28;;;;;;;3.70;0.80;;;;;;;;;;5285358;28;20024;-80
2022/07/05 14:19:00;;;;;;;3.38;0.82;;;;;;;;;;5267192;28;20311;-80
2022/07/05 14:21:31;;;;;;;2.65;0.80;;;;;;;;;;5284766;28;20060;-81
2022/07/05 14:24:06;;;;;;;2.22;0.80;;;;;;;;;;5283207;28;20061;-81
2022/07/05 14:26:39;;;;;;;1.95;0.60;;;;;;;;;;5263943;28;20033;-81
2022/07/05 14:29:10;;;;;;;3.03;0.80;;;;;;;;;;5246778;28;20095;-80
2022/07/05 14:31:42;;;;;;;3.78;0.77;;;;;;;;;;5263757;28;20017;-80
2022/07/05 14:34:13;;;;;;;2.80;0.80;;;;;;;;;;5264523;28;20056;-80
2022/07/05 14:36:44;;;;;;;3.78;1.00;;;;;;;;;;5260737;28;20033;-81
2022/07/05 14:39:16;;;;;;;2.03;0.70;;;;;;;;;;5263255;28;20113;-80
2022/07/05 14:41:47;;;;;;;6.93;0.98;;;;;;;;;;5264099;28;20108;-80
2022/07/05 14:44:18;;;;;;;2.30;0.63;;;;;;;;;;5246825;28;20045;-80
2022/07/05 14:46:49;;;;;;;2.10;0.80;;;;;;;;;;5264583;28;20025;-81
2022/07/05 14:49:21;;;;;;;1.23;0.70;;;;;;;;;;5284637;28;20406;-81
2022/07/05 14:51:52;;;;;;;2.28;0.70;;;;;;;;;;5297986;28;20087;-83
2022/07/05 14:54:23;;;;;;;6.20;1.00;;;;;;;;;;5317533;28;20060;-80
2022/07/05 14:56:55;;;;;;;2.38;0.70;;;;;;;;;;5318159;28;20031;-79
2022/07/05 14:59:26;;;;;;;4.03;1.05;;;;;;;;;;5299172;28;20071;-80
2022/07/05 15:01:57;;;;;;;4.65;1.00;;;;;;;;;;5308312;28;20048;-80
2022/07/05 15:04:28;;;;;;;2.70;0.80;;;;;;;;;;5309577;28;20029;-80
2022/07/05 15:06:59;;;;;;;5.53;1.20;;;;;;;;;;5290247;28;20020;-80
2022/07/05 15:09:31;;;;;;;3.83;1.03;;;;;;;;;;5306859;28;20154;-81
2022/07/05 15:12:02;;;;;;;6.40;0.83;;;;;;;;;;5305872;28;20021;-81
2022/07/05 15:14:34;;;;;;;6.57;0.98;;;;;;;;;;5281440;28;20287;-80
2022/07/05 15:17:05;;;;;;;2.72;0.80;;;;;;;;;;5266506;28;20014;-80